createdAt,value
2017-08-16T00:02:15.503Z,21.35
2017-08-16T00:04:42.083Z,21.27
2017-08-16T00:07:09.138Z,21.36
2017-08-16T00:09:35.616Z,21.30
2017-08-16T00:12:02.114Z,21.25
2017-08-16T00:14:28.911Z,21.29
2017-08-16T00:16:55.401Z,21.36
2017-08-16T00:19:21.869Z,21.42
2017-08-16T00:21:48.310Z,21.44
2017-08-16T00:24:14.841Z,21.30
2017-08-16T00:26:41.660Z,21.29
2017-08-16T00:29:08.173Z,21.26
2017-08-16T00:31:34.680Z,21.30
2017-08-16T00:34:01.161Z,21.34
2017-08-16T00:36:27.650Z,21.23
2017-08-16T00:38:54.162Z,21.25
2017-08-16T00:41:20.703Z,21.28
2017-08-16T00:43:47.159Z,21.23
2017-08-16T00:46:13.711Z,21.13
2017-08-16T00:48:40.288Z,21.09
2017-08-16T00:51:06.878Z,21.19
2017-08-16T00:53:33.414Z,21.15
2017-08-16T00:55:59.989Z,21.15
2017-08-16T00:58:26.499Z,21.15
2017-08-16T01:00:52.973Z,21.16
2017-08-16T01:03:19.499Z,21.16
2017-08-16T01:05:45.920Z,21.23
2017-08-16T01:08:12.385Z,21.18
2017-08-16T01:10:38.866Z,21.10
2017-08-16T01:13:05.319Z,21.19
2017-08-16T01:15:31.731Z,21.17
2017-08-16T01:17:58.189Z,21.18
2017-08-16T01:20:24.675Z,21.17
2017-08-16T01:22:51.184Z,21.16
2017-08-16T01:25:17.635Z,21.23
2017-08-16T01:27:44.210Z,21.21
2017-08-16T01:30:10.716Z,21.13
2017-08-16T01:32:37.202Z,21.13
2017-08-16T01:35:03.671Z,21.07
2017-08-16T01:37:30.118Z,21.15
2017-08-16T01:39:56.651Z,21.12
2017-08-16T01:42:23.129Z,21.11
2017-08-16T01:44:49.642Z,21.17
2017-08-16T01:47:16.065Z,21.20
2017-08-16T01:49:42.576Z,21.09
2017-08-16T01:52:09.006Z,21.07
2017-08-16T01:54:35.578Z,21.10
2017-08-16T01:57:02.106Z,21.11
2017-08-16T01:59:28.824Z,21.11
2017-08-16T02:01:55.255Z,20.97
2017-08-16T02:04:21.749Z,20.94
2017-08-16T02:06:48.278Z,20.99
2017-08-16T02:09:14.778Z,20.97
2017-08-16T02:11:41.295Z,20.99
2017-08-16T02:14:07.791Z,20.92
2017-08-16T02:16:34.280Z,20.92
2017-08-16T02:19:01.167Z,20.82
2017-08-16T02:21:27.628Z,20.89
2017-08-16T02:23:54.128Z,20.98
2017-08-16T02:26:20.976Z,20.89
2017-08-16T02:28:47.679Z,20.89
2017-08-16T02:31:14.155Z,20.89
2017-08-16T02:33:40.670Z,20.85
2017-08-16T02:36:07.134Z,20.87
2017-08-16T02:38:33.624Z,20.86
2017-08-16T02:41:00.137Z,20.91
2017-08-16T02:43:26.635Z,20.88
2017-08-16T02:45:53.125Z,20.85
2017-08-16T02:48:19.807Z,20.81
2017-08-16T02:50:46.434Z,20.93
2017-08-16T02:53:12.952Z,20.86
2017-08-16T02:55:39.453Z,20.86
2017-08-16T02:58:06.008Z,20.88
2017-08-16T03:00:32.528Z,20.98
2017-08-16T03:02:59.048Z,20.97
2017-08-16T03:05:25.514Z,20.91
2017-08-16T03:07:52.066Z,20.89
2017-08-16T03:10:18.670Z,20.91
2017-08-16T03:12:45.211Z,20.83
2017-08-16T03:15:11.773Z,20.91
2017-08-16T03:17:38.375Z,20.88
2017-08-16T03:20:04.962Z,20.88
2017-08-16T03:22:31.542Z,20.90
2017-08-16T03:24:58.064Z,20.85
2017-08-16T03:27:24.629Z,20.78
2017-08-16T03:29:51.608Z,20.70
2017-08-16T03:32:18.172Z,20.72
2017-08-16T03:34:44.709Z,20.72
2017-08-16T03:37:11.204Z,20.71
2017-08-16T03:39:37.795Z,20.76
2017-08-16T03:42:04.383Z,20.75
2017-08-16T03:44:30.956Z,20.73
2017-08-16T03:46:57.513Z,20.84
2017-08-16T03:49:24.000Z,20.80
2017-08-16T03:51:50.482Z,20.78
2017-08-16T03:54:17.056Z,20.70
2017-08-16T03:56:43.579Z,20.72
2017-08-16T03:59:10.119Z,20.62
2017-08-16T04:01:36.651Z,20.66
2017-08-16T04:04:03.227Z,20.72
2017-08-16T04:06:29.805Z,20.79
2017-08-16T04:08:56.319Z,20.70
2017-08-16T04:11:22.919Z,20.62
2017-08-16T04:13:49.511Z,20.59
2017-08-16T04:16:16.049Z,20.54
2017-08-16T04:18:42.627Z,20.63
2017-08-16T04:21:09.195Z,20.72
2017-08-16T04:23:35.790Z,20.61
2017-08-16T04:26:02.355Z,20.63
2017-08-16T04:28:28.891Z,20.59
2017-08-16T04:30:55.500Z,20.67
2017-08-16T04:33:22.073Z,20.61
2017-08-16T04:35:49.015Z,20.54
2017-08-16T04:38:15.571Z,20.57
2017-08-16T04:40:42.130Z,20.53
2017-08-16T04:43:08.621Z,20.60
2017-08-16T04:45:35.206Z,20.60
2017-08-16T04:48:01.733Z,20.60
2017-08-16T04:50:28.272Z,20.63
2017-08-16T04:52:54.807Z,20.56
2017-08-16T04:55:21.390Z,20.52
2017-08-16T04:57:47.935Z,20.55
2017-08-16T05:00:14.513Z,20.56
2017-08-16T05:02:41.158Z,20.57
2017-08-16T05:05:08.701Z,20.50
2017-08-16T05:07:35.285Z,20.50
2017-08-16T05:10:01.810Z,20.57
2017-08-16T05:12:28.431Z,20.52
2017-08-16T05:14:55.030Z,20.43
2017-08-16T05:17:21.569Z,20.46
2017-08-16T05:19:48.210Z,20.45
2017-08-16T05:22:14.785Z,20.46
2017-08-16T05:24:41.347Z,20.43
2017-08-16T05:27:07.914Z,20.37
2017-08-16T05:29:35.518Z,20.36
2017-08-16T05:32:02.067Z,20.38
2017-08-16T05:34:41.499Z,20.53
2017-08-16T05:37:07.999Z,20.35
2017-08-16T05:39:35.396Z,20.29
2017-08-16T05:42:01.876Z,20.37
2017-08-16T05:44:28.312Z,20.38
2017-08-16T05:46:54.831Z,20.13
2017-08-16T05:49:21.871Z,20.10
2017-08-16T05:51:48.332Z,20.25
2017-08-16T05:54:14.832Z,20.35
2017-08-16T05:56:41.271Z,20.36
2017-08-16T05:59:07.686Z,20.29
2017-08-16T06:01:34.143Z,20.29
2017-08-16T06:04:00.861Z,20.27
2017-08-16T06:06:28.007Z,20.34
2017-08-16T06:08:54.510Z,20.42
2017-08-16T06:11:21.010Z,20.46
2017-08-16T06:13:47.463Z,20.48
2017-08-16T06:16:13.954Z,20.40
2017-08-16T06:18:40.371Z,20.45
2017-08-16T06:21:06.884Z,20.42
2017-08-16T06:23:33.421Z,20.48
2017-08-16T06:25:59.902Z,20.55
2017-08-16T06:28:26.416Z,20.56
2017-08-16T06:30:52.928Z,20.40
2017-08-16T06:33:19.391Z,20.55
2017-08-16T06:35:46.063Z,20.65
2017-08-16T06:38:12.563Z,20.64
2017-08-16T06:40:39.416Z,20.67
2017-08-16T06:43:06.145Z,20.76
2017-08-16T06:45:33.129Z,20.78
2017-08-16T06:47:59.658Z,20.77
2017-08-16T06:50:26.173Z,20.80
2017-08-16T06:52:52.660Z,20.80
2017-08-16T06:55:19.143Z,20.85
2017-08-16T06:57:47.115Z,20.86
2017-08-16T07:00:13.630Z,20.78
2017-08-16T07:02:40.059Z,20.75
2017-08-16T07:05:06.518Z,20.82
2017-08-16T07:07:33.002Z,20.89
2017-08-16T07:10:01.699Z,21.00
2017-08-16T07:12:34.750Z,21.11
2017-08-16T07:15:04.448Z,21.16
2017-08-16T07:17:30.999Z,21.15
2017-08-16T07:19:57.583Z,21.21
2017-08-16T07:22:24.215Z,21.25
2017-08-16T07:24:50.876Z,21.25
2017-08-16T07:27:17.515Z,21.19
2017-08-16T07:29:50.056Z,21.25
2017-08-16T07:32:16.839Z,21.26
2017-08-16T07:34:43.471Z,21.15
2017-08-16T07:37:10.034Z,21.19
2017-08-16T07:39:37.943Z,21.26
2017-08-16T07:42:11.567Z,21.29
2017-08-16T07:44:43.591Z,21.50
2017-08-16T07:47:10.428Z,21.40
2017-08-16T07:49:43.235Z,21.34
2017-08-16T07:52:09.851Z,21.60
2017-08-16T07:54:36.833Z,21.77
2017-08-16T07:57:10.749Z,21.79
2017-08-16T07:59:37.697Z,21.73
2017-08-16T08:02:06.822Z,21.75
2017-08-16T08:04:40.132Z,21.68
2017-08-16T08:07:07.684Z,21.62
2017-08-16T08:09:36.509Z,21.65
2017-08-16T08:12:03.517Z,21.61
2017-08-16T08:14:32.602Z,21.61
2017-08-16T08:17:00.782Z,21.59
2017-08-16T08:19:31.236Z,21.58
2017-08-16T08:22:00.480Z,21.65
2017-08-16T08:24:28.043Z,21.86
2017-08-16T08:26:56.222Z,22.17
2017-08-16T08:29:24.528Z,22.24
2017-08-16T08:31:51.769Z,22.23
2017-08-16T08:34:19.671Z,22.29
2017-08-16T08:36:47.624Z,22.17
2017-08-16T08:39:14.361Z,22.14
2017-08-16T08:41:45.917Z,22.20
2017-08-16T08:44:12.515Z,22.18
2017-08-16T08:46:39.040Z,22.11
2017-08-16T08:49:05.933Z,22.08
2017-08-16T08:51:33.165Z,21.98
2017-08-16T08:54:08.218Z,22.00
2017-08-16T08:56:40.080Z,22.26
2017-08-16T08:59:06.691Z,22.44
2017-08-16T09:01:33.269Z,22.61
2017-08-16T09:04:01.702Z,22.50
2017-08-16T09:06:28.538Z,22.38
2017-08-16T09:08:55.909Z,22.38
2017-08-16T09:11:22.522Z,22.38
2017-08-16T09:13:51.126Z,22.47
2017-08-16T09:16:23.811Z,22.57
2017-08-16T09:18:50.527Z,22.87
2017-08-16T09:21:22.498Z,22.99
2017-08-16T09:23:51.149Z,22.96
2017-08-16T09:26:18.513Z,23.70
2017-08-16T09:28:45.140Z,23.99
2017-08-16T09:31:11.734Z,23.68
2017-08-16T09:33:38.280Z,23.74
2017-08-16T09:36:04.969Z,23.96
2017-08-16T09:38:31.801Z,23.79
2017-08-16T09:40:58.807Z,23.86
2017-08-16T09:43:26.335Z,24.27
2017-08-16T09:45:52.956Z,24.90
2017-08-16T09:48:24.915Z,24.71
2017-08-16T09:50:51.461Z,24.33
2017-08-16T09:53:18.096Z,24.57
2017-08-16T09:55:44.881Z,24.86
2017-08-16T09:58:12.509Z,24.54
2017-08-16T10:00:39.287Z,24.37
2017-08-16T10:03:05.922Z,24.36
2017-08-16T10:05:32.480Z,24.75
2017-08-16T10:07:59.071Z,25.14
2017-08-16T10:10:25.687Z,25.34
2017-08-16T10:15:26.015Z,25.17
2017-08-16T10:17:52.625Z,25.11
2017-08-16T10:20:19.254Z,25.04
2017-08-16T10:22:45.862Z,25.39
2017-08-16T10:25:12.359Z,25.15
2017-08-16T10:27:38.871Z,25.16
2017-08-16T10:30:05.840Z,25.06
2017-08-16T10:32:32.314Z,24.96
2017-08-16T10:34:58.812Z,24.93
2017-08-16T10:37:25.315Z,24.80
2017-08-16T10:39:51.864Z,24.75
2017-08-16T10:42:18.494Z,24.94
2017-08-16T10:44:45.053Z,25.63
2017-08-16T10:47:11.666Z,25.45
2017-08-16T10:49:38.761Z,25.65
2017-08-16T10:52:05.388Z,26.10
2017-08-16T10:54:32.013Z,26.17
2017-08-16T10:57:02.772Z,26.40
2017-08-16T10:59:34.512Z,26.55
2017-08-16T11:02:01.347Z,26.18
2017-08-16T11:04:33.123Z,26.43
2017-08-16T11:06:59.742Z,26.09
2017-08-16T11:09:26.592Z,25.97
2017-08-16T11:11:53.291Z,26.17
2017-08-16T11:14:19.996Z,26.05
2017-08-16T11:16:52.806Z,25.92
2017-08-16T11:21:51.552Z,26.84
2017-08-16T11:24:22.150Z,26.77
2017-08-16T11:26:48.748Z,26.46
2017-08-16T11:29:15.370Z,26.32
2017-08-16T11:31:42.477Z,26.17
2017-08-16T11:34:09.185Z,26.57
2017-08-16T11:36:36.037Z,26.81
2017-08-16T11:39:02.742Z,26.99
2017-08-16T11:41:30.261Z,26.69
2017-08-16T11:43:57.024Z,26.94
2017-08-16T11:46:23.687Z,26.79
2017-08-16T11:48:50.436Z,27.12
2017-08-16T11:51:17.097Z,26.89
2017-08-16T11:53:43.716Z,26.56
2017-08-16T11:56:10.551Z,26.84
2017-08-16T11:58:37.256Z,26.71
2017-08-16T12:01:03.923Z,27.12
2017-08-16T12:03:31.308Z,26.99
2017-08-16T12:05:58.011Z,27.22
2017-08-16T12:08:24.668Z,26.98
2017-08-16T12:10:51.391Z,26.99
2017-08-16T12:13:20.049Z,27.41
2017-08-16T12:15:50.408Z,27.25
2017-08-16T12:18:17.557Z,27.66
2017-08-16T12:20:47.512Z,27.49
2017-08-16T12:23:18.846Z,27.14
2017-08-16T12:25:50.684Z,26.96
2017-08-16T12:28:17.951Z,27.43
2017-08-16T12:30:44.624Z,27.44
2017-08-16T12:33:12.482Z,27.65
2017-08-16T12:35:39.247Z,27.71
2017-08-16T12:38:06.295Z,27.55
2017-08-16T12:40:44.401Z,27.40
2017-08-16T12:43:12.239Z,27.68
2017-08-16T12:45:38.929Z,27.98
2017-08-16T12:48:05.591Z,27.71
2017-08-16T12:50:32.218Z,27.64
2017-08-16T12:52:58.869Z,27.53
2017-08-16T12:55:25.649Z,27.79
2017-08-16T12:57:58.603Z,28.02
2017-08-16T13:00:31.615Z,27.73
2017-08-16T13:02:58.247Z,28.06
2017-08-16T13:05:25.157Z,28.66
2017-08-16T13:07:51.957Z,28.56
2017-08-16T13:10:18.586Z,28.52
2017-08-16T13:12:45.279Z,28.47
2017-08-16T13:15:11.853Z,27.94
2017-08-16T13:17:38.502Z,27.73
2017-08-16T13:31:00.568Z,28.11
2017-08-16T13:33:39.401Z,28.00
2017-08-16T13:38:52.623Z,27.44
2017-08-16T13:41:24.265Z,27.15
2017-08-16T13:43:50.683Z,27.47
2017-08-16T13:46:17.064Z,27.03
2017-08-16T13:48:43.462Z,26.77
2017-08-16T13:51:09.837Z,26.62
2017-08-16T13:53:36.261Z,26.99
2017-08-16T13:56:02.691Z,27.00
2017-08-16T13:58:29.050Z,27.17
2017-08-16T14:00:55.444Z,27.13
2017-08-16T14:03:21.838Z,27.29
2017-08-16T14:05:48.228Z,27.18
2017-08-16T14:08:14.616Z,26.90
2017-08-16T14:10:40.992Z,26.98
2017-08-16T14:13:07.439Z,27.07
2017-08-16T14:15:33.884Z,26.91
2017-08-16T14:18:00.281Z,27.08
2017-08-16T14:20:26.679Z,27.30
2017-08-16T14:22:53.082Z,27.36
2017-08-16T14:25:19.476Z,27.10
2017-08-16T14:27:45.826Z,27.02
2017-08-16T14:30:12.192Z,26.86
2017-08-16T14:32:38.596Z,26.77
2017-08-16T14:35:04.983Z,26.97
2017-08-16T14:37:31.365Z,27.14
2017-08-16T14:39:57.789Z,27.45
2017-08-16T14:42:24.181Z,27.23
2017-08-16T14:44:50.573Z,27.27
2017-08-16T14:47:17.024Z,27.25
2017-08-16T14:49:43.408Z,27.33
2017-08-16T14:52:09.792Z,27.62
2017-08-16T14:54:36.207Z,27.73
2017-08-16T14:57:02.619Z,27.54
2017-08-16T14:59:29.031Z,27.33
2017-08-16T15:01:55.437Z,27.54
2017-08-16T15:04:21.847Z,27.61
2017-08-16T15:06:48.246Z,27.34
2017-08-16T15:09:14.640Z,27.42
2017-08-16T15:11:41.016Z,27.57
2017-08-16T15:14:07.404Z,27.34
2017-08-16T15:16:34.126Z,27.17
2017-08-16T15:19:00.560Z,27.13
2017-08-16T15:21:27.002Z,26.97
2017-08-16T15:23:53.468Z,26.91
2017-08-16T15:26:19.881Z,26.84
2017-08-16T15:28:46.287Z,26.69
2017-08-16T15:31:12.693Z,26.64
2017-08-16T15:33:39.077Z,26.70
2017-08-16T15:36:05.490Z,26.69
2017-08-16T15:38:31.925Z,26.74
2017-08-16T15:40:58.319Z,26.90
2017-08-16T15:43:24.696Z,26.96
2017-08-16T15:45:51.075Z,26.92
2017-08-16T15:48:17.484Z,26.74
2017-08-16T15:50:43.896Z,26.61
2017-08-16T15:53:10.329Z,26.50
2017-08-16T15:55:36.712Z,26.53
2017-08-16T15:58:03.086Z,26.83
2017-08-16T16:00:29.452Z,26.62
2017-08-16T16:02:55.834Z,26.70
2017-08-16T16:05:22.239Z,26.72
2017-08-16T16:07:48.646Z,26.60
2017-08-16T16:10:15.042Z,26.73
2017-08-16T16:12:41.424Z,26.72
2017-08-16T16:15:07.800Z,26.67
2017-08-16T16:17:34.268Z,26.78
2017-08-16T16:20:02.715Z,26.78
2017-08-16T16:22:29.590Z,26.63
2017-08-16T16:24:56.602Z,26.37
2017-08-16T16:27:23.125Z,26.24
2017-08-16T16:29:49.729Z,26.15
2017-08-16T16:32:16.176Z,26.07
2017-08-16T16:34:42.570Z,26.04
2017-08-16T16:37:08.945Z,25.98
2017-08-16T16:39:35.372Z,26.01
2017-08-16T16:42:01.759Z,25.98
2017-08-16T16:44:28.261Z,25.90
2017-08-16T16:46:54.659Z,25.81
2017-08-16T16:49:21.056Z,25.77
2017-08-16T16:51:47.425Z,25.76
2017-08-16T16:54:13.804Z,25.69
2017-08-16T16:56:40.548Z,25.65
2017-08-16T16:59:07.506Z,25.64
2017-08-16T17:01:34.499Z,25.64
2017-08-16T17:04:00.982Z,25.55
2017-08-16T17:06:27.827Z,25.57
2017-08-16T17:08:54.343Z,25.51
2017-08-16T17:11:20.742Z,25.59
2017-08-16T17:13:47.156Z,25.63
2017-08-16T17:16:13.608Z,25.76
2017-08-16T17:18:40.820Z,25.81
2017-08-16T17:21:07.331Z,25.80
2017-08-16T17:23:33.831Z,25.93
2017-08-16T17:26:00.281Z,25.97
2017-08-16T17:28:27.392Z,25.95
2017-08-16T17:30:54.167Z,25.85
2017-08-16T17:33:20.644Z,25.83
2017-08-16T17:35:47.023Z,25.87
2017-08-16T17:38:13.405Z,25.67
2017-08-16T17:40:40.706Z,25.54
2017-08-16T17:43:07.087Z,25.47
2017-08-16T17:45:33.504Z,25.38
2017-08-16T17:47:59.902Z,25.47
2017-08-16T17:50:26.314Z,25.66
2017-08-16T17:52:59.376Z,25.63
2017-08-16T18:11:41.076Z,25.24
2017-08-16T18:14:07.496Z,25.22
2017-08-16T18:16:33.872Z,25.33
2017-08-16T18:19:00.977Z,25.34
2017-08-16T18:21:29.035Z,25.28
2017-08-16T18:23:55.479Z,25.35
2017-08-16T18:26:22.365Z,25.34
2017-08-16T18:28:48.906Z,25.20
2017-08-16T18:31:15.386Z,25.21
2017-08-16T18:33:41.807Z,25.06
2017-08-16T18:36:08.217Z,24.72
2017-08-16T18:38:34.700Z,24.67
2017-08-16T18:41:01.560Z,24.90
2017-08-16T18:43:27.976Z,24.87
2017-08-16T18:45:55.644Z,24.97
2017-08-16T18:48:22.219Z,25.01
2017-08-16T18:50:49.209Z,24.87
2017-08-16T18:53:15.612Z,24.86
2017-08-16T18:55:42.066Z,24.77
2017-08-16T18:58:08.789Z,24.66
2017-08-16T19:00:35.237Z,24.50
2017-08-16T19:03:01.715Z,24.32
2017-08-16T19:05:28.129Z,24.24
2017-08-16T19:07:54.568Z,24.46
2017-08-16T19:10:21.625Z,24.53
2017-08-16T19:12:48.485Z,24.52
2017-08-16T19:15:14.977Z,24.28
2017-08-16T19:17:41.398Z,24.23
2017-08-16T19:20:08.116Z,24.19
2017-08-16T19:22:34.576Z,24.26
2017-08-16T19:25:01.049Z,24.34
2017-08-16T19:27:27.634Z,24.44
2017-08-16T19:29:55.217Z,24.46
2017-08-16T19:32:21.658Z,24.48
2017-08-16T19:34:48.802Z,24.43
2017-08-16T19:37:15.288Z,24.51
2017-08-16T19:39:41.689Z,24.51
2017-08-16T19:42:08.092Z,24.52
2017-08-16T19:44:34.530Z,24.51
2017-08-16T19:47:00.997Z,24.17
2017-08-16T19:49:27.393Z,24.18
2017-08-16T19:51:53.793Z,24.21
2017-08-16T19:54:20.182Z,24.25
2017-08-16T19:56:46.801Z,24.11
2017-08-16T19:59:13.187Z,24.04
2017-08-16T20:01:39.643Z,24.05
2017-08-16T20:04:06.044Z,23.91
2017-08-16T20:06:32.471Z,23.86
2017-08-16T20:08:58.869Z,23.70
2017-08-16T20:11:25.252Z,23.56
2017-08-16T20:13:51.636Z,23.58
2017-08-16T20:16:18.017Z,23.57
2017-08-16T20:18:44.420Z,23.52
2017-08-16T20:21:10.790Z,23.49
2017-08-16T20:23:37.633Z,23.40
2017-08-16T20:26:07.816Z,23.28
2017-08-16T20:28:34.325Z,23.61
2017-08-16T20:31:03.105Z,23.70
2017-08-16T20:33:29.621Z,23.60
2017-08-16T20:35:57.896Z,23.60
2017-08-16T20:38:25.762Z,23.53
2017-08-16T20:40:52.212Z,23.46
2017-08-16T20:43:20.421Z,23.34
2017-08-16T20:45:47.820Z,23.22
2017-08-16T20:48:14.346Z,23.55
2017-08-16T20:50:40.774Z,23.65
2017-08-16T20:53:08.224Z,23.74
2017-08-16T20:55:35.460Z,23.70
2017-08-16T20:58:01.897Z,23.39
2017-08-16T21:00:28.290Z,23.11
2017-08-16T21:02:54.634Z,23.32
2017-08-16T21:05:21.000Z,23.30
2017-08-16T21:07:47.469Z,23.51
2017-08-16T21:10:13.899Z,23.49
2017-08-16T21:12:41.334Z,23.45
2017-08-16T21:15:08.306Z,23.32
2017-08-16T21:17:34.732Z,23.24
2017-08-16T21:20:01.152Z,23.38
2017-08-16T21:22:27.572Z,23.20
2017-08-16T21:24:54.247Z,23.09
2017-08-16T21:27:20.670Z,22.92
2017-08-16T21:29:47.090Z,22.99
2017-08-16T21:32:13.509Z,22.81
2017-08-16T21:34:39.941Z,22.67
2017-08-16T21:37:06.535Z,22.83
2017-08-16T21:39:32.935Z,22.97
2017-08-16T21:41:59.345Z,22.73
2017-08-16T21:44:25.775Z,22.60
2017-08-16T21:46:52.178Z,22.68
2017-08-16T21:49:18.561Z,22.76
2017-08-16T21:51:44.959Z,23.00
2017-08-16T21:54:11.358Z,22.92
2017-08-16T21:56:37.757Z,22.76
2017-08-16T21:59:04.158Z,22.72
2017-08-16T22:01:30.552Z,22.77
2017-08-16T22:03:56.949Z,22.88
2017-08-16T22:06:23.357Z,22.82
2017-08-16T22:08:50.239Z,22.91
2017-08-16T22:11:16.701Z,22.86
2017-08-16T22:13:43.164Z,22.32
2017-08-16T22:16:09.613Z,22.18
2017-08-16T22:18:36.073Z,22.34
2017-08-16T22:21:02.463Z,22.26
2017-08-16T22:23:28.854Z,22.17
2017-08-16T22:25:55.210Z,21.95
2017-08-16T22:28:21.616Z,21.81
2017-08-16T22:30:48.008Z,21.96
2017-08-16T22:33:14.382Z,22.20
2017-08-16T22:35:40.760Z,22.14
2017-08-16T22:38:07.155Z,21.96
2017-08-16T22:40:33.592Z,21.85
2017-08-16T22:43:00.000Z,21.54
2017-08-16T22:45:26.375Z,21.60
2017-08-16T22:47:52.790Z,21.71
2017-08-16T22:50:19.160Z,21.64
2017-08-16T22:52:45.507Z,21.61
2017-08-16T22:55:11.884Z,21.89
2017-08-16T22:57:38.265Z,22.04
2017-08-16T23:00:04.689Z,21.95
2017-08-16T23:02:31.101Z,21.71
2017-08-16T23:04:57.473Z,21.61
2017-08-16T23:07:23.854Z,21.64
2017-08-16T23:09:50.250Z,21.56
2017-08-16T23:12:16.629Z,21.79
2017-08-16T23:14:43.027Z,21.64
2017-08-16T23:17:09.450Z,21.73
2017-08-16T23:19:35.837Z,21.78
2017-08-16T23:22:02.244Z,21.71
2017-08-16T23:24:28.660Z,21.80
2017-08-16T23:26:55.080Z,21.82
2017-08-16T23:29:21.476Z,21.60
2017-08-16T23:31:47.868Z,21.42
2017-08-16T23:34:14.268Z,21.35
2017-08-16T23:36:45.943Z,21.44
2017-08-16T23:39:12.486Z,21.31
2017-08-16T23:41:45.112Z,21.56
2017-08-16T23:44:11.791Z,21.63
2017-08-16T23:46:40.378Z,21.54
2017-08-16T23:49:07.778Z,21.46
2017-08-16T23:51:39.277Z,21.54
2017-08-16T23:54:10.835Z,21.15
2017-08-16T23:56:38.010Z,21.08
2017-08-16T23:59:04.358Z,21.21
